Wayside, Wisconsin
Current Conditions -  °F | °C
As of 2:53 AM on Thursday 23 Oct 2014 (Local Time) from KGRB Reporting Station
Haze Haze  
Wind Chill: 36°   Ceiling: Unl
Heat Index: 36°   Visibility: 6mi
Dew Point: 34°   Wind: 3mph
Humidity: 93%   Direction: 200°SSW
Pressure: 30.21"   Gusts: NA
Location:  44.2894°N, 88.0263°W
Report Text: KGRB 230753Z AUTO 20003KT 6SM BR CLR 02/01 A3021 RMK AO2 SLP234 T00220011
Loading
Personal Weather Stations






























Interactive Weather Map
Tropical Storm Tracking
New forecast layout! Learn more

10-Day Weather Forecast

Advertisements
Track Severe Weather on mobile